createdAt,value
2018-05-14T08:33:38.755Z,1012.15
2018-05-14T08:34:38.665Z,1012.12
2018-05-14T08:36:31.744Z,1012.19
2018-05-14T08:37:31.740Z,1012.14
2018-05-14T08:39:24.837Z,1012.14
2018-05-14T08:40:24.847Z,1012.20
2018-05-14T08:42:17.962Z,1012.13
2018-05-14T08:43:17.952Z,1012.18
2018-05-14T08:45:11.343Z,1012.13
2018-05-14T08:46:11.047Z,1012.14
2018-05-14T08:47:11.070Z,1012.16
2018-05-14T08:48:11.099Z,1012.22
2018-05-14T08:49:11.124Z,1012.25
2018-05-14T08:50:11.140Z,1012.16
2018-05-14T08:51:11.166Z,1012.19
2018-05-14T08:52:11.199Z,1012.24
2018-05-14T08:53:11.228Z,1012.19
2018-05-14T08:54:11.259Z,1012.18
2018-05-14T08:55:11.269Z,1012.20
2018-05-14T08:56:11.289Z,1012.18
2018-05-14T08:57:11.313Z,1012.13
2018-05-14T08:58:11.354Z,1012.14
2018-05-14T08:59:11.367Z,1012.17
2018-05-14T09:00:11.435Z,1012.17
2018-05-14T09:01:11.529Z,1012.19
2018-05-14T09:02:11.441Z,1012.21
2018-05-14T09:03:11.481Z,1012.24
2018-05-14T09:04:11.493Z,1012.19
2018-05-14T09:05:11.518Z,1012.17
2018-05-14T09:06:11.540Z,1012.22
2018-05-14T09:07:11.619Z,1012.27
2018-05-14T09:08:11.591Z,1012.22
2018-05-14T09:09:11.616Z,1012.12
2018-05-14T09:10:11.690Z,1012.14
2018-05-14T09:11:11.663Z,1012.14
2018-05-14T09:12:11.693Z,1012.11
2018-05-14T09:13:11.729Z,1012.12
2018-05-14T09:14:11.773Z,1012.18
2018-05-14T09:15:11.866Z,1012.14
2018-05-14T09:16:11.809Z,1012.18
2018-05-14T09:17:11.821Z,1012.15
2018-05-14T09:18:11.845Z,1012.11
2018-05-14T09:19:11.874Z,1012.12
2018-05-14T09:20:11.900Z,1012.08
2018-05-14T09:21:11.928Z,1012.10
2018-05-14T09:22:12.004Z,1012.09
2018-05-14T09:23:11.987Z,1012.12
2018-05-14T09:24:12.001Z,1012.16
2018-05-14T09:25:12.041Z,1012.15
2018-05-14T09:26:12.055Z,1012.12
2018-05-14T09:27:12.072Z,1012.12
2018-05-14T09:28:12.107Z,1012.16
2018-05-14T09:29:12.146Z,1012.16
2018-05-14T09:30:12.238Z,1012.15
2018-05-14T09:31:12.188Z,1012.26
2018-05-14T09:32:12.213Z,1012.18
2018-05-14T09:33:12.255Z,1012.15
2018-05-14T09:34:12.264Z,1012.14
2018-05-14T09:35:12.286Z,1012.15
2018-05-14T09:36:12.313Z,1012.13
2018-05-14T09:37:12.372Z,1012.12
2018-05-14T09:38:12.382Z,1012.16
2018-05-14T09:39:12.407Z,1012.16
2018-05-14T09:40:12.434Z,1012.25
2018-05-14T09:41:12.451Z,1012.10
2018-05-14T09:42:12.506Z,1012.09
2018-05-14T09:43:12.513Z,1012.15
2018-05-14T09:44:12.549Z,1012.20
2018-05-14T09:45:12.554Z,1012.26
2018-05-14T09:46:12.584Z,1012.18
2018-05-14T09:47:12.621Z,1012.27
2018-05-14T09:48:12.626Z,1012.17
2018-05-14T09:49:12.681Z,1012.10
2018-05-14T09:50:12.690Z,1012.12
2018-05-14T09:51:12.704Z,1012.09
2018-05-14T09:52:12.773Z,1012.17
2018-05-14T09:53:12.793Z,1012.11
2018-05-14T09:54:13.446Z,1012.08
2018-05-14T09:55:12.831Z,1012.05
2018-05-14T09:56:12.841Z,1012.18
2018-05-14T09:57:12.950Z,1012.13
2018-05-14T09:58:12.882Z,1012.25
2018-05-14T09:59:12.988Z,1012.17
2018-05-14T10:00:12.957Z,1012.27
2018-05-14T10:01:12.968Z,1012.09
2018-05-14T10:02:13.018Z,1012.17
2018-05-14T10:03:13.039Z,1012.18
2018-05-14T10:04:13.943Z,1012.11
2018-05-14T10:05:13.103Z,1012.17
2018-05-14T10:06:13.101Z,1012.22
2018-05-14T10:07:13.117Z,1012.12
2018-05-14T10:08:13.174Z,1012.09
2018-05-14T10:09:13.185Z,1012.17
2018-05-14T10:10:13.199Z,1012.26
2018-05-14T10:11:13.272Z,1012.15
2018-05-14T10:12:13.254Z,1012.50
2018-05-14T10:13:13.275Z,1012.28
2018-05-14T10:14:13.312Z,1012.10
2018-05-14T10:15:13.334Z,1012.08
2018-05-14T10:16:13.629Z,1012.06
2018-05-14T10:17:13.427Z,1012.11
2018-05-14T10:18:13.407Z,1012.15
2018-05-14T10:19:13.562Z,1012.12
2018-05-14T10:20:13.471Z,1012.16
2018-05-14T10:21:13.496Z,1012.12
2018-05-14T10:22:13.552Z,1012.21
2018-05-14T10:23:13.565Z,1012.18
2018-05-14T10:24:13.569Z,1012.14
2018-05-14T10:25:13.600Z,1012.19
2018-05-14T10:26:13.623Z,1012.17
2018-05-14T10:27:13.652Z,1012.12
2018-05-14T10:28:13.672Z,1012.18
2018-05-14T10:29:13.707Z,1012.17
2018-05-14T10:30:13.729Z,1012.13
2018-05-14T10:31:13.756Z,1012.22
2018-05-14T10:32:13.777Z,1012.12
2018-05-14T10:33:13.804Z,1012.18
2018-05-14T10:34:13.837Z,1012.17
2018-05-14T10:35:13.857Z,1012.02
2018-05-14T10:36:13.924Z,1012.06
2018-05-14T10:37:13.906Z,1012.14
2018-05-14T10:38:13.937Z,1012.07
2018-05-14T10:39:13.962Z,1012.09
2018-05-14T10:40:13.990Z,1012.23
2018-05-14T10:41:14.018Z,1012.07
2018-05-14T10:42:14.039Z,1012.03
2018-05-14T10:43:14.066Z,1012.10
2018-05-14T10:44:14.093Z,1012.09
2018-05-14T10:45:14.119Z,1012.04
2018-05-14T10:46:14.146Z,1012.12
2018-05-14T10:47:14.198Z,1012.11
2018-05-14T10:48:14.196Z,1012.11
2018-05-14T10:49:14.226Z,1012.17
2018-05-14T10:50:14.266Z,1012.19
2018-05-14T10:51:14.278Z,1012.20
2018-05-14T10:52:14.306Z,1012.18
2018-05-14T10:53:14.329Z,1012.17
2018-05-14T10:54:14.355Z,1012.07
2018-05-14T10:55:14.429Z,1012.01
2018-05-14T10:56:14.412Z,1012.13
2018-05-14T10:57:14.442Z,1012.02
2018-05-14T10:58:14.459Z,1012.08
2018-05-14T10:59:14.484Z,1011.98
2018-05-14T11:00:14.517Z,1012.02
2018-05-14T11:01:14.552Z,1012.04
2018-05-14T11:02:14.615Z,1012.11
2018-05-14T11:03:14.592Z,1011.98
2018-05-14T11:04:14.619Z,1012.08
2018-05-14T11:05:14.645Z,1012.03
2018-05-14T11:06:14.671Z,1012.06
2018-05-14T11:07:14.697Z,1012.04
2018-05-14T11:08:14.723Z,1012.10
2018-05-14T11:09:14.751Z,1012.06
2018-05-14T11:10:14.778Z,1011.99
2018-05-14T11:11:14.802Z,1011.92
2018-05-14T11:12:14.827Z,1011.91
2018-05-14T11:13:14.854Z,1011.92
2018-05-14T11:14:14.881Z,1011.96
2018-05-14T11:15:14.922Z,1011.92
2018-05-14T11:16:14.941Z,1011.96
2018-05-14T11:17:14.959Z,1011.99
2018-05-14T11:18:15.003Z,1011.91
2018-05-14T11:19:15.039Z,1011.97
2018-05-14T11:20:15.039Z,1012.01
2018-05-14T11:21:15.063Z,1012.02
2018-05-14T11:22:15.097Z,1012.05
2018-05-14T11:23:15.119Z,1011.99
2018-05-14T11:24:15.152Z,1011.99
2018-05-14T11:25:15.172Z,1012.00
2018-05-14T11:26:15.224Z,1012.00
2018-05-14T11:27:15.218Z,1012.04
2018-05-14T11:28:15.256Z,1011.98
2018-05-14T11:29:15.284Z,1011.97
2018-05-14T11:30:15.301Z,1011.97
2018-05-14T11:31:15.346Z,1012.01
2018-05-14T11:32:15.352Z,1011.99
2018-05-14T11:33:15.380Z,1012.04
2018-05-14T11:34:15.409Z,1012.03
2018-05-14T11:35:15.476Z,1012.04
2018-05-14T11:36:15.474Z,1011.97
2018-05-14T11:37:15.505Z,1012.07
2018-05-14T11:38:15.539Z,1012.01
2018-05-14T11:39:15.543Z,1012.05
2018-05-14T11:40:15.564Z,1012.04
2018-05-14T11:41:15.594Z,1012.06
2018-05-14T11:42:15.616Z,1011.94
2018-05-14T11:43:15.642Z,1011.97
2018-05-14T11:44:15.670Z,1011.99
2018-05-14T11:45:15.696Z,1011.88
2018-05-14T11:46:15.732Z,1011.87
2018-05-14T11:47:15.746Z,1011.89
2018-05-14T11:48:15.775Z,1011.92
2018-05-14T11:49:15.799Z,1011.99
2018-05-14T11:50:15.824Z,1012.01
2018-05-14T11:51:15.858Z,1012.00
2018-05-14T11:52:15.879Z,1011.97
2018-05-14T11:53:15.906Z,1011.98
2018-05-14T11:54:15.932Z,1011.93
2018-05-14T11:55:15.961Z,1011.98
2018-05-14T11:56:15.986Z,1012.00
2018-05-14T11:57:16.013Z,1011.95
2018-05-14T11:58:16.042Z,1011.93
2018-05-14T11:59:16.063Z,1011.93
2018-05-14T12:00:16.113Z,1011.99
2018-05-14T12:01:16.117Z,1012.02
2018-05-14T12:02:16.143Z,1011.94
2018-05-14T12:03:16.180Z,1011.95
2018-05-14T12:04:16.201Z,1011.99
2018-05-14T12:05:16.226Z,1011.94
2018-05-14T12:06:16.248Z,1011.91
2018-05-14T12:07:16.272Z,1011.95
2018-05-14T12:08:16.325Z,1011.89
2018-05-14T12:09:16.328Z,1011.89
2018-05-14T12:10:16.356Z,1011.89
2018-05-14T12:11:16.386Z,1011.79
2018-05-14T12:12:16.453Z,1011.87
2018-05-14T12:13:16.460Z,1011.92
2018-05-14T12:14:16.465Z,1011.90
2018-05-14T12:15:16.500Z,1011.89
2018-05-14T12:16:16.536Z,1011.87
2018-05-14T12:17:16.581Z,1011.88
2018-05-14T12:18:16.577Z,1011.88
2018-05-14T12:19:16.587Z,1011.84
2018-05-14T12:20:16.644Z,1011.87
2018-05-14T12:21:16.658Z,1011.81
2018-05-14T12:22:16.666Z,1011.92
2018-05-14T12:23:16.699Z,1011.83
2018-05-14T12:24:16.716Z,1011.89
2018-05-14T12:25:16.745Z,1011.86
2018-05-14T12:26:16.803Z,1011.91
2018-05-14T12:27:16.826Z,1011.82
2018-05-14T12:28:16.844Z,1011.93
2018-05-14T12:29:16.866Z,1011.90
2018-05-14T12:30:16.875Z,1011.92
2018-05-14T12:31:16.920Z,1011.95
2018-05-14T12:32:16.962Z,1011.89
2018-05-14T12:33:16.954Z,1011.90
2018-05-14T12:34:16.999Z,1011.86
2018-05-14T12:35:17.007Z,1011.89
2018-05-14T12:36:17.042Z,1011.82
2018-05-14T12:37:17.059Z,1011.79
2018-05-14T12:38:17.084Z,1011.80
2018-05-14T12:39:17.112Z,1011.80
2018-05-14T12:40:17.183Z,1011.83
2018-05-14T12:41:17.166Z,1011.81
2018-05-14T12:42:17.196Z,1011.86
2018-05-14T12:43:17.226Z,1011.82
2018-05-14T12:44:17.247Z,1011.82
2018-05-14T12:45:17.285Z,1011.85
2018-05-14T12:46:17.359Z,1011.80
2018-05-14T12:47:17.357Z,1011.89
2018-05-14T12:48:17.356Z,1011.90
2018-05-14T12:49:17.384Z,1011.85
2018-05-14T12:50:17.415Z,1011.92
2018-05-14T12:51:17.496Z,1011.86
2018-05-14T12:52:17.466Z,1011.89
2018-05-14T12:53:17.517Z,1011.93
2018-05-14T12:54:17.529Z,1011.94
2018-05-14T12:55:17.554Z,1011.92
2018-05-14T12:56:17.571Z,1011.88
2018-05-14T12:57:17.624Z,1011.89
2018-05-14T12:58:17.613Z,1011.89
2018-05-14T12:59:17.642Z,1011.95
2018-05-14T13:00:17.670Z,1011.88
2018-05-14T13:01:17.700Z,1011.92
2018-05-14T13:02:17.731Z,1011.84
2018-05-14T13:03:17.787Z,1011.88
2018-05-14T13:04:17.774Z,1011.87
2018-05-14T13:05:17.810Z,1011.87
2018-05-14T13:06:17.833Z,1011.83
2018-05-14T13:07:17.871Z,1011.84
2018-05-14T13:08:17.882Z,1011.82
2018-05-14T13:09:17.907Z,1011.85
2018-05-14T13:10:17.935Z,1011.79
2018-05-14T13:11:17.958Z,1011.80
2018-05-14T13:12:17.988Z,1011.77
2018-05-14T13:13:18.023Z,1011.81
2018-05-14T13:14:18.081Z,1011.80
2018-05-14T13:15:18.083Z,1011.81
2018-05-14T13:16:18.111Z,1011.80
2018-05-14T13:17:18.130Z,1011.82
2018-05-14T13:18:18.155Z,1011.94
2018-05-14T13:19:18.225Z,1011.85
2018-05-14T13:20:18.199Z,1011.86
2018-05-14T13:21:18.229Z,1011.88
2018-05-14T13:22:18.256Z,1011.87
2018-05-14T13:23:18.281Z,1011.85
2018-05-14T13:24:18.307Z,1011.86
2018-05-14T13:25:18.335Z,1011.91
2018-05-14T13:26:18.466Z,1011.92
2018-05-14T13:27:18.389Z,1011.93
2018-05-14T13:28:18.419Z,1011.87
2018-05-14T13:29:18.440Z,1011.89
2018-05-14T13:30:18.468Z,1011.93
2018-05-14T13:31:18.494Z,1011.93
2018-05-14T13:32:18.525Z,1011.95
2018-05-14T13:33:18.547Z,1011.86
2018-05-14T13:34:18.569Z,1011.90
2018-05-14T13:35:18.602Z,1011.91
2018-05-14T13:36:18.633Z,1011.89
2018-05-14T13:37:18.667Z,1011.89
2018-05-14T13:38:18.686Z,1011.95
2018-05-14T13:39:18.713Z,1011.99
2018-05-14T13:40:18.736Z,1011.98
2018-05-14T13:41:18.757Z,1011.96
2018-05-14T13:42:18.791Z,1011.91
2018-05-14T13:43:18.820Z,1011.91
2018-05-14T13:44:18.860Z,1011.93
2018-05-14T13:45:18.870Z,1011.90
